Accueil
METAR-TAF:

METAR-TAF

Aéroports :

Le Mans, France

Aéroport Le Mans-Arnage

latitude: 47-56N, longitude: 000-12E, altitude: 59 m

Observation

Le bulletin a été fait il y a 33 minutes, à 03:30 UTC
Vent 10 kt de est/nord-est
Température 1°C
Humidité 59%
Pression 1017 hPa
Visibilité 10 km ou plus

METAR: LFRM 250330Z AUTO 06010KT 9999 NSC 01/M06 Q1017

Heure: 05:03 (04:03 UTC)

Prévision

Le bulletin a été fait il y a 11 heures et 3 minutes, à 17:00 UTC
Prévision valable du 24 à 18 UTC au 25 à 03 UTC
Vent 10 kt de est/nord-est
Visibilité 10 km ou plus
pas de nuages en-dessous de 1500 mètres et pas de cumulonimbus.

TAF: LFRM 241700Z 2418/2503 06010KT CAVOK

Observations et prévisions météorologiques de plus de 4000 aéroports (messages METAR et TAF).

Les stations disponibles sont représentées par des disques jaunes et rouges sur la carte.

Passer la souris dessus pour voir le nom de la station.

Cliquer dessus pour voir les observations et prévisions météorologiques.

Pour changer de carte: cliquez sur les boutons verts avec une croix noire pour zoomer, sur le bouton vert avec un tiret pour effectuer un zoom arrière, ou sur les flèches vertes pour les cartes adjacentes.


METAR-TAF: